Turks and Caicos Islands Weather

[source: ADDS]
METAR
MBPV 251000Z 2512/2612 VRB10KT 9999 SCT018 BKN220 MBGT 251000Z 2512/2612 VRB10KT 9999 SCT018 BKN220 TAF
MBPV 251000Z 2512/2612 VRB10KT 9999 SCT018 BKN220 =
MBGT 251000Z 2512/2612 VRB10KT 9999 SCT018 BKN220 =
SR / SS: 10:21 / 23:12 UTC (MBPV 2015-04-25)
E-mail Print PDF
Weather